Needville, Texas
Current Conditions -  °F | °C
As of 12:53 AM on Monday 24 Nov 2014 (Local Time) from KSGR Reporting Station
Clear Clear  
Wind Chill: 62°   Ceiling: Unl
Heat Index: 62°   Visibility: 10mi
Dew Point: 45°   Wind: 16mph
Humidity: 53%   Direction: 350°N
Pressure: 29.78"   Gusts: 28mph
Location:  29.4°N, 95.84°W
Report Text: KSGR 240653Z AUTO 35014G24KT 10SM CLR 17/07 A2978 RMK AO2 SLP085 T01670072
Loading
Personal Weather Stations






























Interactive Weather Map New forecast layout! Learn more

10-Day Weather Forecast

Advertisements
Track Severe Weather on mobile